createdAt,value
2018-09-28T00:00:45.954Z,74.60
2018-09-28T00:03:12.903Z,74.30
2018-09-28T00:05:39.866Z,74.30
2018-09-28T00:08:06.858Z,74.50
2018-09-28T00:10:33.815Z,74.40
2018-09-28T00:13:00.765Z,74.90
2018-09-28T00:15:27.738Z,74.50
2018-09-28T00:17:54.702Z,75.00
2018-09-28T00:20:21.665Z,74.80
2018-09-28T00:22:48.650Z,74.60
2018-09-28T00:25:15.599Z,74.80
2018-09-28T00:27:42.842Z,74.60
2018-09-28T00:30:09.823Z,75.00
2018-09-28T00:32:36.814Z,74.80
2018-09-28T00:35:04.270Z,75.60
2018-09-28T00:37:31.258Z,75.50
2018-09-28T00:39:58.220Z,75.90
2018-09-28T00:42:25.212Z,75.90
2018-09-28T00:44:52.143Z,74.30
2018-09-28T00:47:19.113Z,75.70
2018-09-28T00:49:46.078Z,75.70
2018-09-28T00:52:13.042Z,75.70
2018-09-28T00:54:39.992Z,75.50
2018-09-28T00:57:06.942Z,75.70
2018-09-28T00:59:33.939Z,76.00
2018-09-28T01:02:00.897Z,76.40
2018-09-28T01:04:27.854Z,77.60
2018-09-28T01:06:54.809Z,77.70
2018-09-28T01:09:21.766Z,77.40
2018-09-28T01:11:48.735Z,77.60
2018-09-28T01:14:15.696Z,77.70
2018-09-28T01:16:42.642Z,77.70
2018-09-28T01:19:09.608Z,76.00
2018-09-28T01:21:36.581Z,77.00
2018-09-28T01:24:03.553Z,77.50
2018-09-28T01:26:30.506Z,77.60
2018-09-28T01:28:57.751Z,78.20
2018-09-28T01:31:24.721Z,78.30
2018-09-28T01:33:51.713Z,78.60
2018-09-28T01:36:18.697Z,78.60
2018-09-28T01:38:45.650Z,78.10
2018-09-28T01:41:12.613Z,79.00
2018-09-28T01:43:39.557Z,78.70
2018-09-28T01:46:06.646Z,78.00
2018-09-28T01:48:33.589Z,78.40
2018-09-28T01:51:00.592Z,79.10
2018-09-28T01:53:27.539Z,79.60
2018-09-28T01:55:54.482Z,79.30
2018-09-28T01:58:21.472Z,78.80
2018-09-28T02:00:48.527Z,78.80
2018-09-28T02:03:15.477Z,78.30
2018-09-28T02:05:42.486Z,78.30
2018-09-28T02:08:09.434Z,78.80
2018-09-28T02:10:36.405Z,78.80
2018-09-28T02:13:03.380Z,78.70
2018-09-28T02:15:30.330Z,78.80
2018-09-28T02:17:57.287Z,78.60
2018-09-28T02:20:24.265Z,79.10
2018-09-28T02:22:51.214Z,80.10
2018-09-28T02:25:18.193Z,79.70
2018-09-28T02:27:45.166Z,79.30
2018-09-28T02:30:12.494Z,79.30
2018-09-28T02:32:39.473Z,78.90
2018-09-28T02:35:06.498Z,79.40
2018-09-28T02:37:33.489Z,79.40
2018-09-28T02:40:00.457Z,79.30
2018-09-28T02:42:27.419Z,79.40
2018-09-28T02:44:54.371Z,79.80
2018-09-28T02:47:21.315Z,80.00
2018-09-28T02:49:48.282Z,80.90
2018-09-28T02:52:15.246Z,80.90
2018-09-28T02:54:42.202Z,81.80
2018-09-28T02:57:09.189Z,81.40
2018-09-28T02:59:36.166Z,81.00
2018-09-28T03:02:03.115Z,80.80
2018-09-28T03:04:30.134Z,81.00
2018-09-28T03:06:57.072Z,80.70
2018-09-28T03:09:24.038Z,80.30
2018-09-28T03:11:51.021Z,79.90
2018-09-28T03:14:17.967Z,79.40
2018-09-28T03:16:44.935Z,77.50
2018-09-28T03:19:11.921Z,80.30
2018-09-28T03:21:38.881Z,80.90
2018-09-28T03:24:05.838Z,82.20
2018-09-28T03:26:33.073Z,81.60
2018-09-28T03:31:27.306Z,81.70
2018-09-28T03:33:54.290Z,81.50
2018-09-28T03:36:21.258Z,79.00
2018-09-28T03:38:48.211Z,81.70
2018-09-28T03:41:15.170Z,81.60
2018-09-28T03:43:42.114Z,81.50
2018-09-28T03:46:09.079Z,81.70
2018-09-28T03:48:36.092Z,80.80
2018-09-28T03:51:03.058Z,81.10
2018-09-28T03:53:30.006Z,81.30
2018-09-28T03:55:56.985Z,81.40
2018-09-28T03:58:23.930Z,81.50
2018-09-28T04:00:50.950Z,82.00
2018-09-28T04:03:17.907Z,82.70
2018-09-28T04:05:44.878Z,82.50
2018-09-28T04:08:11.821Z,83.00
2018-09-28T04:10:38.806Z,81.10
2018-09-28T04:13:05.733Z,82.70
2018-09-28T04:15:32.742Z,82.80
2018-09-28T04:17:59.711Z,83.00
2018-09-28T04:20:26.666Z,82.80
2018-09-28T04:22:53.634Z,83.10
2018-09-28T04:25:20.630Z,80.90
2018-09-28T04:27:47.587Z,82.90
2018-09-28T04:30:14.535Z,82.90
2018-09-28T04:32:41.897Z,83.80
2018-09-28T04:35:08.863Z,83.90
2018-09-28T04:37:35.833Z,83.80
2018-09-28T04:40:02.791Z,83.00
2018-09-28T04:42:29.761Z,84.10
2018-09-28T04:44:56.722Z,84.50
2018-09-28T04:47:23.682Z,85.20
2018-09-28T04:49:50.625Z,85.10
2018-09-28T04:52:17.573Z,84.90
2018-09-28T04:54:44.546Z,85.00
2018-09-28T04:57:11.497Z,85.00
2018-09-28T04:59:38.455Z,83.70
2018-09-28T05:02:05.423Z,82.80
2018-09-28T05:04:32.444Z,84.60
2018-09-28T05:06:59.417Z,83.60
2018-09-28T05:09:26.405Z,82.40
2018-09-28T05:11:53.366Z,83.20
2018-09-28T05:14:20.314Z,85.10
2018-09-28T05:16:47.284Z,84.00
2018-09-28T05:19:14.251Z,83.50
2018-09-28T05:21:41.247Z,85.00
2018-09-28T05:24:08.249Z,85.00
2018-09-28T05:26:35.210Z,84.30
2018-09-28T05:29:02.173Z,84.50
2018-09-28T05:31:29.238Z,84.80
2018-09-28T05:33:56.329Z,85.00
2018-09-28T05:36:23.302Z,85.30
2018-09-28T05:38:50.353Z,85.20
2018-09-28T05:41:17.330Z,85.40
2018-09-28T05:43:44.345Z,86.10
2018-09-28T05:46:11.275Z,87.00
2018-09-28T05:48:38.346Z,87.00
2018-09-28T05:51:05.785Z,86.70
2018-09-28T05:53:32.777Z,86.60
2018-09-28T05:55:59.735Z,86.30
2018-09-28T05:58:32.518Z,86.00
2018-09-28T06:01:05.244Z,86.00
2018-09-28T06:03:32.200Z,85.70
2018-09-28T06:06:01.637Z,85.10
2018-09-28T06:08:28.795Z,84.90
2018-09-28T06:10:55.766Z,85.60
2018-09-28T06:13:22.725Z,85.10
2018-09-28T06:15:50.019Z,84.90
2018-09-28T06:18:17.046Z,84.40
2018-09-28T06:20:44.334Z,84.10
2018-09-28T06:23:11.314Z,82.40
2018-09-28T06:25:38.260Z,83.20
2018-09-28T06:28:05.220Z,82.90
2018-09-28T06:30:32.422Z,83.70
2018-09-28T06:32:59.409Z,83.10
2018-09-28T06:35:26.821Z,83.00
2018-09-28T06:37:54.110Z,82.70
2018-09-28T06:40:21.054Z,83.00
2018-09-28T06:42:48.029Z,82.80
2018-09-28T06:45:15.015Z,82.10
2018-09-28T06:47:41.968Z,81.60
2018-09-28T06:50:08.918Z,81.60
2018-09-28T06:52:35.896Z,80.60
2018-09-28T06:55:03.213Z,79.60
2018-09-28T06:57:30.170Z,79.80
2018-09-28T06:59:57.235Z,78.80
2018-09-28T07:02:24.146Z,78.00
2018-09-28T07:04:51.129Z,77.20
2018-09-28T07:07:18.417Z,77.30
2018-09-28T07:09:45.366Z,76.10
2018-09-28T07:12:12.467Z,75.30
2018-09-28T07:14:39.380Z,75.20
2018-09-28T07:17:06.365Z,75.00
2018-09-28T07:19:33.322Z,73.10
2018-09-28T07:22:00.305Z,73.30
2018-09-28T07:24:27.765Z,72.20
2018-09-28T07:26:55.077Z,72.20
2018-09-28T07:29:22.048Z,71.70
2018-09-28T07:31:49.083Z,70.80
2018-09-28T07:34:16.053Z,70.60
2018-09-28T07:36:43.530Z,70.70
2018-09-28T07:39:11.235Z,69.30
2018-09-28T07:41:38.203Z,68.90
2018-09-28T07:44:05.277Z,67.30
2018-09-28T07:46:32.267Z,68.00
2018-09-28T07:48:59.426Z,67.60
2018-09-28T07:51:26.478Z,66.80
2018-09-28T07:53:53.420Z,65.30
2018-09-28T07:56:20.582Z,65.50
2018-09-28T07:58:47.694Z,65.20
2018-09-28T08:01:14.670Z,65.80
2018-09-28T08:03:41.606Z,63.70
2018-09-28T08:06:08.574Z,63.70
2018-09-28T08:08:35.541Z,63.40
2018-09-28T08:11:02.504Z,62.60
2018-09-28T08:13:29.501Z,61.50
2018-09-28T08:15:56.483Z,60.90
2018-09-28T08:18:23.429Z,60.80
2018-09-28T08:20:51.118Z,60.10
2018-09-28T08:23:18.250Z,60.90
2018-09-28T08:25:45.145Z,59.00
2018-09-28T08:28:12.129Z,60.00
2018-09-28T08:30:39.136Z,59.00
2018-09-28T08:33:06.157Z,58.50
2018-09-28T08:35:33.117Z,58.70
2018-09-28T08:38:00.687Z,57.90
2018-09-28T08:40:27.655Z,57.70
2018-09-28T08:42:54.633Z,57.80
2018-09-28T08:45:22.054Z,57.20
2018-09-28T08:47:49.023Z,56.40
2018-09-28T08:50:16.022Z,56.50
2018-09-28T08:52:43.078Z,55.10
2018-09-28T08:55:10.037Z,54.10
2018-09-28T08:57:37.022Z,53.20
2018-09-28T09:00:04.210Z,53.40
2018-09-28T09:02:31.213Z,52.60
2018-09-28T09:04:58.194Z,51.60
2018-09-28T09:07:25.330Z,46.90
2018-09-28T09:09:52.299Z,36.00
2018-09-28T09:12:19.262Z,30.00
2018-09-28T09:14:46.220Z,28.50
2018-09-28T09:17:13.197Z,28.50
2018-09-28T09:19:40.402Z,28.50
2018-09-28T09:22:07.386Z,27.40
2018-09-28T09:24:34.358Z,27.10
2018-09-28T09:27:01.415Z,26.50
2018-09-28T09:29:28.377Z,26.50
2018-09-28T09:31:56.114Z,26.50
2018-09-28T09:34:23.101Z,26.60
2018-09-28T09:36:50.081Z,27.60
2018-09-28T09:39:17.726Z,26.50
2018-09-28T09:41:44.705Z,26.20
2018-09-28T09:44:11.665Z,25.40
2018-09-28T09:46:38.802Z,25.90
2018-09-28T09:49:05.963Z,25.40
2018-09-28T09:51:32.992Z,26.20
2018-09-28T09:53:59.957Z,25.80
2018-09-28T09:56:26.926Z,25.50
2018-09-28T09:58:53.901Z,25.60
2018-09-28T10:01:26.638Z,25.40
2018-09-28T10:03:53.630Z,25.90
2018-09-28T10:06:20.577Z,26.20
2018-09-28T10:08:47.648Z,26.40
2018-09-28T10:11:14.625Z,27.90
2018-09-28T10:13:41.586Z,29.20
2018-09-28T10:16:08.669Z,30.50
2018-09-28T10:18:35.706Z,30.60
2018-09-28T10:21:02.669Z,32.20
2018-09-28T10:23:29.670Z,33.20
2018-09-28T10:25:56.637Z,32.40
2018-09-28T10:28:23.647Z,33.10
2018-09-28T10:30:50.709Z,32.50
2018-09-28T10:33:17.675Z,32.30
2018-09-28T10:35:44.637Z,31.80
2018-09-28T10:38:11.582Z,32.70
2018-09-28T10:40:39.154Z,32.10
2018-09-28T10:43:05.981Z,32.80
2018-09-28T10:45:32.971Z,31.70
2018-09-28T10:47:59.901Z,32.50
2018-09-28T10:50:26.846Z,31.90
2018-09-28T10:52:54.006Z,32.60
2018-09-28T10:55:20.806Z,33.40
2018-09-28T10:57:48.118Z,31.90
2018-09-28T11:00:15.087Z,32.50
2018-09-28T11:02:42.085Z,31.20
2018-09-28T11:05:09.052Z,31.10
2018-09-28T11:07:36.006Z,31.90
2018-09-28T11:10:03.008Z,31.40
2018-09-28T11:12:29.958Z,31.40
2018-09-28T11:14:56.930Z,31.00
2018-09-28T11:17:23.936Z,31.00
2018-09-28T11:19:50.886Z,31.20
2018-09-28T11:22:17.834Z,30.40
2018-09-28T11:24:44.819Z,30.20
2018-09-28T11:27:11.802Z,29.80
2018-09-28T11:29:38.857Z,29.80
2018-09-28T11:32:06.430Z,30.50
2018-09-28T11:34:33.409Z,30.00
2018-09-28T11:37:00.381Z,30.50
2018-09-28T11:39:27.424Z,30.60
2018-09-28T11:41:54.885Z,29.70
2018-09-28T11:44:21.899Z,29.80
2018-09-28T11:46:48.866Z,30.20
2018-09-28T11:49:15.880Z,30.10
2018-09-28T11:51:42.823Z,30.50
2018-09-28T11:54:09.737Z,29.50
2018-09-28T11:56:37.269Z,29.10
2018-09-28T11:59:04.321Z,30.70
2018-09-28T12:01:31.218Z,30.00
2018-09-28T12:03:58.162Z,29.70
2018-09-28T12:06:25.155Z,30.80
2018-09-28T12:08:52.138Z,30.00
2018-09-28T12:11:19.143Z,30.60
2018-09-28T12:13:46.095Z,30.00
2018-09-28T12:16:13.069Z,29.70
2018-09-28T12:18:40.100Z,30.00
2018-09-28T12:21:07.006Z,30.30
2018-09-28T12:23:34.018Z,29.90
2018-09-28T12:26:01.309Z,30.50
2018-09-28T12:28:28.287Z,29.10
2018-09-28T12:30:55.255Z,30.10
2018-09-28T12:33:22.297Z,29.70
2018-09-28T12:35:49.166Z,29.40
2018-09-28T12:38:16.137Z,29.90
2018-09-28T12:40:43.130Z,28.30
2018-09-28T12:43:10.639Z,29.60
2018-09-28T12:45:37.913Z,29.70
2018-09-28T12:48:04.907Z,30.60
2018-09-28T12:50:31.863Z,30.30
2018-09-28T12:52:58.822Z,30.20
2018-09-28T12:55:25.805Z,30.60
2018-09-28T12:57:52.798Z,30.30
2018-09-28T13:00:19.846Z,30.00
2018-09-28T13:02:46.814Z,28.80
2018-09-28T13:05:13.654Z,26.80
2018-09-28T13:07:40.620Z,28.90
2018-09-28T13:10:07.738Z,29.90
2018-09-28T13:12:35.463Z,29.10
2018-09-28T13:15:02.615Z,29.30
2018-09-28T13:17:29.417Z,29.30
2018-09-28T13:19:56.370Z,28.60
2018-09-28T13:22:23.515Z,28.10
2018-09-28T13:24:50.636Z,26.70
2018-09-28T13:27:17.537Z,27.50
2018-09-28T13:29:44.771Z,26.70
2018-09-28T13:32:11.797Z,28.20
2018-09-28T13:34:38.727Z,27.90
2018-09-28T13:37:05.846Z,28.00
2018-09-28T13:39:33.075Z,28.50
2018-09-28T13:42:00.151Z,29.10
2018-09-28T13:44:27.733Z,27.20
2018-09-28T13:46:54.690Z,26.70
2018-09-28T13:49:22.010Z,27.30
2018-09-28T13:51:49.095Z,29.40
2018-09-28T13:54:16.210Z,30.00
2018-09-28T13:56:43.427Z,31.20
2018-09-28T13:59:10.578Z,32.10
2018-09-28T14:01:37.672Z,32.00
2018-09-28T14:04:04.959Z,31.50
2018-09-28T14:06:31.958Z,30.00
2018-09-28T14:08:58.969Z,32.40
2018-09-28T14:11:25.979Z,32.00
2018-09-28T14:13:52.935Z,32.10
2018-09-28T14:16:20.397Z,33.10
2018-09-28T14:18:47.254Z,33.60
2018-09-28T14:21:14.364Z,34.20
2018-09-28T14:23:41.330Z,34.20
2018-09-28T14:26:08.415Z,34.30
2018-09-28T14:28:35.411Z,34.30
2018-09-28T14:31:02.492Z,34.70
2018-09-28T14:33:29.460Z,35.50
2018-09-28T14:35:56.463Z,34.30
2018-09-28T14:38:23.773Z,35.40
2018-09-28T14:40:50.729Z,35.50
2018-09-28T14:43:17.654Z,37.40
2018-09-28T14:45:45.260Z,36.80
2018-09-28T14:48:12.367Z,36.50
2018-09-28T14:50:39.413Z,38.10
2018-09-28T14:53:06.479Z,37.50
2018-09-28T14:55:33.434Z,37.40
2018-09-28T14:58:01.484Z,38.50
2018-09-28T15:00:28.915Z,38.70
2018-09-28T15:02:55.899Z,39.00
2018-09-28T15:05:22.944Z,37.50
2018-09-28T15:07:49.912Z,39.70
2018-09-28T15:10:17.077Z,40.00
2018-09-28T15:12:44.030Z,40.10
2018-09-28T15:15:11.064Z,40.20
2018-09-28T15:17:37.960Z,40.30
2018-09-28T15:20:04.978Z,40.60
2018-09-28T15:22:31.999Z,41.00
2018-09-28T15:24:59.371Z,41.30
2018-09-28T15:27:26.367Z,41.70
2018-09-28T15:29:53.316Z,41.90
2018-09-28T15:32:20.892Z,41.50
2018-09-28T15:34:48.005Z,41.60
2018-09-28T15:37:15.026Z,42.40
2018-09-28T15:39:41.918Z,42.60
2018-09-28T15:42:09.196Z,42.70
2018-09-28T15:44:36.354Z,42.70
2018-09-28T15:47:03.704Z,42.70
2018-09-28T15:49:30.808Z,43.30
2018-09-28T15:51:57.893Z,43.70
2018-09-28T15:54:24.916Z,44.80
2018-09-28T15:56:52.109Z,43.70
2018-09-28T15:59:18.998Z,43.10
2018-09-28T16:01:46.084Z,43.50
2018-09-28T16:04:13.146Z,44.80
2018-09-28T16:06:40.352Z,43.90
2018-09-28T16:09:08.194Z,45.10
2018-09-28T16:11:35.345Z,45.30
2018-09-28T16:14:02.356Z,46.40
2018-09-28T16:16:29.475Z,46.10
2018-09-28T16:18:56.692Z,46.00
2018-09-28T16:21:23.674Z,48.00
2018-09-28T16:23:50.893Z,46.70
2018-09-28T16:26:17.834Z,47.60
2018-09-28T16:28:45.201Z,47.40
2018-09-28T16:31:12.137Z,46.50
2018-09-28T16:33:39.171Z,47.70
2018-09-28T16:36:06.382Z,47.90
2018-09-28T16:38:33.504Z,48.60
2018-09-28T16:41:00.650Z,48.90
2018-09-28T16:43:27.705Z,48.80
2018-09-28T16:45:54.928Z,48.70
2018-09-28T16:48:22.547Z,48.40
2018-09-28T16:50:49.511Z,51.00
2018-09-28T16:53:16.700Z,49.90
2018-09-28T16:55:43.968Z,49.90
2018-09-28T16:58:10.873Z,49.70
2018-09-28T17:00:37.983Z,49.20
2018-09-28T17:03:05.329Z,51.00
2018-09-28T17:05:32.457Z,50.80
2018-09-28T17:07:59.547Z,51.20
2018-09-28T17:10:26.663Z,51.00
2018-09-28T17:12:53.710Z,49.60
2018-09-28T17:15:20.768Z,51.30
2018-09-28T17:17:47.916Z,51.30
2018-09-28T17:20:14.976Z,51.70
2018-09-28T17:22:41.972Z,51.70
2018-09-28T17:25:09.044Z,51.50
2018-09-28T17:27:36.102Z,51.50
2018-09-28T17:30:03.243Z,51.80
2018-09-28T17:32:30.379Z,51.40
2018-09-28T17:34:57.405Z,51.40
2018-09-28T17:37:24.450Z,51.30
2018-09-28T17:39:51.483Z,50.30
2018-09-28T17:42:18.546Z,50.40
2018-09-28T17:44:45.676Z,50.20
2018-09-28T17:47:12.640Z,49.20
2018-09-28T17:49:39.851Z,48.30
2018-09-28T17:52:06.973Z,49.60
2018-09-28T17:54:33.988Z,48.60
2018-09-28T17:57:00.968Z,48.30
2018-09-28T17:59:28.027Z,49.90
2018-09-28T18:01:55.089Z,47.60
2018-09-28T18:04:22.034Z,49.00
2018-09-28T18:06:49.282Z,49.40
2018-09-28T18:09:16.386Z,49.50
2018-09-28T18:11:43.355Z,48.20
2018-09-28T18:14:10.370Z,50.20
2018-09-28T18:16:37.338Z,51.50
2018-09-28T18:19:04.343Z,52.70
2018-09-28T18:21:31.554Z,53.80
2018-09-28T18:23:58.778Z,55.00
2018-09-28T18:26:25.902Z,56.20
2018-09-28T18:28:52.943Z,55.20
2018-09-28T18:31:19.971Z,56.30
2018-09-28T18:33:46.948Z,57.10
2018-09-28T18:36:14.264Z,56.40
2018-09-28T18:38:41.498Z,57.90
2018-09-28T18:41:08.487Z,58.30
2018-09-28T18:43:35.600Z,57.00
2018-09-28T18:46:02.760Z,58.10
2018-09-28T18:48:29.817Z,58.60
2018-09-28T18:50:57.317Z,58.40
2018-09-28T18:53:24.321Z,57.80
2018-09-28T18:55:51.426Z,58.20
2018-09-28T18:58:18.392Z,58.90
2018-09-28T19:00:45.689Z,59.60
2018-09-28T19:03:12.733Z,60.40
2018-09-28T19:05:39.809Z,59.80
2018-09-28T19:08:06.705Z,59.90
2018-09-28T19:10:33.663Z,60.20
2018-09-28T19:13:00.638Z,60.60
2018-09-28T19:15:27.589Z,60.90
2018-09-28T19:17:54.631Z,61.20
2018-09-28T19:20:21.640Z,61.60
2018-09-28T19:22:48.589Z,60.90
2018-09-28T19:25:15.526Z,61.00
2018-09-28T19:27:42.466Z,60.80
2018-09-28T19:30:09.445Z,60.90
2018-09-28T19:32:36.413Z,59.80
2018-09-28T19:35:03.378Z,60.90
2018-09-28T19:37:30.381Z,62.90
2018-09-28T19:39:57.346Z,63.70
2018-09-28T19:42:24.314Z,63.90
2018-09-28T19:44:51.285Z,65.00
2018-09-28T19:47:18.578Z,65.80
2018-09-28T19:49:45.551Z,66.20
2018-09-28T19:52:12.994Z,65.50
2018-09-28T19:54:39.991Z,65.80
2018-09-28T19:57:06.967Z,66.30
2018-09-28T19:59:33.929Z,66.50
2018-09-28T20:02:00.927Z,66.70
2018-09-28T20:04:27.890Z,67.10
2018-09-28T20:06:54.900Z,67.40
2018-09-28T20:09:22.413Z,67.40
2018-09-28T20:11:49.406Z,67.40
2018-09-28T20:14:16.370Z,66.90
2018-09-28T20:16:43.629Z,66.90
2018-09-28T20:19:10.630Z,69.30
2018-09-28T20:21:37.678Z,71.60
2018-09-28T20:24:04.686Z,72.70
2018-09-28T20:26:31.776Z,73.40
2018-09-28T20:28:58.755Z,75.00
2018-09-28T20:31:25.730Z,73.90
2018-09-28T20:33:52.733Z,76.00
2018-09-28T20:36:19.718Z,77.40
2018-09-28T20:38:46.690Z,78.30
2018-09-28T20:41:13.689Z,78.60
2018-09-28T20:43:40.676Z,81.70
2018-09-28T20:46:07.640Z,80.40
2018-09-28T20:48:34.799Z,80.40
2018-09-28T20:51:02.170Z,81.00
2018-09-28T20:53:29.626Z,81.90
2018-09-28T20:55:56.586Z,82.70
2018-09-28T20:58:23.560Z,81.90
2018-09-28T21:00:50.571Z,82.90
2018-09-28T21:03:17.516Z,82.30
2018-09-28T21:05:44.469Z,81.80
2018-09-28T21:08:11.425Z,82.60
2018-09-28T21:10:38.511Z,81.50
2018-09-28T21:13:05.654Z,81.70
2018-09-28T21:15:32.618Z,83.50
2018-09-28T21:17:59.579Z,82.10
2018-09-28T21:20:26.545Z,81.90
2018-09-28T21:22:53.521Z,82.80
2018-09-28T21:25:20.490Z,82.20
2018-09-28T21:27:47.482Z,82.10
2018-09-28T21:30:14.438Z,81.90
2018-09-28T21:32:41.433Z,81.40
2018-09-28T21:35:08.474Z,81.40
2018-09-28T21:37:35.447Z,81.40
2018-09-28T21:40:02.409Z,82.10
2018-09-28T21:42:32.082Z,81.50
2018-09-28T21:44:59.615Z,81.00
2018-09-28T21:47:26.586Z,81.50
2018-09-28T21:49:53.560Z,81.80
2018-09-28T21:52:20.515Z,80.60
2018-09-28T21:54:47.870Z,81.20
2018-09-28T21:57:14.853Z,81.60
2018-09-28T21:59:41.801Z,81.30
2018-09-28T22:02:08.769Z,81.40
2018-09-28T22:04:36.066Z,80.50
2018-09-28T22:07:03.018Z,81.30
2018-09-28T22:09:30.005Z,81.20
2018-09-28T22:11:57.461Z,81.10
2018-09-28T22:14:24.421Z,80.70
2018-09-28T22:16:51.370Z,80.00
2018-09-28T22:19:18.334Z,80.10
2018-09-28T22:21:45.298Z,80.40
2018-09-28T22:24:12.280Z,79.40
2018-09-28T22:26:39.244Z,79.50
2018-09-28T22:29:06.207Z,80.50
2018-09-28T22:31:33.165Z,78.70
2018-09-28T22:34:00.279Z,78.40
2018-09-28T22:36:27.259Z,77.50
2018-09-28T22:38:54.209Z,79.40
2018-09-28T22:41:21.207Z,77.60
2018-09-28T22:43:48.247Z,75.30
2018-09-28T22:46:15.125Z,74.10
2018-09-28T22:48:42.150Z,74.40
2018-09-28T22:51:09.119Z,72.80
2018-09-28T22:53:36.095Z,73.60
2018-09-28T22:56:03.411Z,73.00
2018-09-28T22:58:30.408Z,70.60
2018-09-28T23:00:57.383Z,69.80
2018-09-28T23:03:24.383Z,69.20
2018-09-28T23:05:51.343Z,67.60
2018-09-28T23:08:18.314Z,66.80
2018-09-28T23:10:45.328Z,66.30
2018-09-28T23:13:12.239Z,65.60
2018-09-28T23:15:39.211Z,65.60
2018-09-28T23:18:06.170Z,65.20
2018-09-28T23:20:33.125Z,64.30
2018-09-28T23:23:00.100Z,64.90
2018-09-28T23:25:27.115Z,64.40
2018-09-28T23:27:54.098Z,65.80
2018-09-28T23:30:21.087Z,64.80
2018-09-28T23:32:48.077Z,63.90
2018-09-28T23:35:15.037Z,63.00
2018-09-28T23:37:41.986Z,62.30
2018-09-28T23:40:08.963Z,61.80
2018-09-28T23:42:35.977Z,61.80
2018-09-28T23:45:03.009Z,62.70
2018-09-28T23:47:30.034Z,62.70
2018-09-28T23:49:56.976Z,62.00
2018-09-28T23:52:23.939Z,61.40
2018-09-28T23:54:50.932Z,60.50
2018-09-28T23:57:18.111Z,63.20
2018-09-28T23:59:45.093Z,61.40
